aviador You're here:

UKLL Decoded Metar

LVOV in UKRAINE
Report Time2017-12-18 08:30:00
UTC Time2017-12-18 08:44:04
Flight Rules lifr LIFR
Wind030° at 6 kt
W.Decomp.*RWY 31: 1.3 kt HW 5.8 kt RCW
W.Rank030° ranks 34
Current wind is below 030° avg. (6.6)
Visibility3000 m
Phenomena:Mist
Clouds:Overcast 003 Hf
Expected CloudBase > 400 ft AGL from Temp-Dew spread
Ceiling300 ft
Temp-2°C (ISA -15)
Dew Point-3°C (93% RH)
AAT-6.5°C
QNH1021 hPa
Density Alt-958 ft
Elevation1,066 ft
Report Wrong Elevation
Raw Report
UKLL 180830Z 03003MPS 360V060 3000 BR OVC003 M02/M03 Q1021
R31/420350 NOSIG=

Extra information for UKLL:More info

Metar Taf Metar & Taf Last 4 Metars F.Rules Stats Wind Profile Meteogram Temp Stats Airport Information Weather charts Add Link Nearby VenuesMetar ALERT Operation Metar Decoded Social comments